sensor_id;sensor_type;location;lat;lon;timestamp;P1;durP1;ratioP1;P2;durP2;ratioP2
12296;SDS011;6211;49.124;9.152;2023-09-18T00:00:30;2.92;;;1.95;;
12296;SDS011;6211;49.124;9.152;2023-09-18T00:02:58;2.15;;;1.95;;
12296;SDS011;6211;49.124;9.152;2023-09-18T00:05:27;3.55;;;1.83;;
12296;SDS011;6211;49.124;9.152;2023-09-18T00:07:55;4.80;;;2.17;;
12296;SDS011;6211;49.124;9.152;2023-09-18T00:10:22;2.42;;;2.00;;
12296;SDS011;6211;49.124;9.152;2023-09-18T00:12:51;3.40;;;2.10;;
12296;SDS011;6211;49.124;9.152;2023-09-18T00:15:18;2.78;;;2.42;;
12296;SDS011;6211;49.124;9.152;2023-09-18T00:17:45;6.57;;;2.38;;
12296;SDS011;6211;49.124;9.152;2023-09-18T00:20:12;2.97;;;2.53;;
12296;SDS011;6211;49.124;9.152;2023-09-18T00:22:42;3.20;;;2.30;;
12296;SDS011;6211;49.124;9.152;2023-09-18T00:25:09;3.05;;;2.30;;
12296;SDS011;6211;49.124;9.152;2023-09-18T00:27:36;3.47;;;2.38;;
12296;SDS011;6211;49.124;9.152;2023-09-18T00:30:05;2.15;;;1.95;;
12296;SDS011;6211;49.124;9.152;2023-09-18T00:32:32;3.47;;;2.35;;
12296;SDS011;6211;49.124;9.152;2023-09-18T00:35:00;2.33;;;2.13;;
12296;SDS011;6211;49.124;9.152;2023-09-18T00:37:28;2.97;;;2.38;;
12296;SDS011;6211;49.124;9.152;2023-09-18T00:39:55;3.28;;;2.45;;
12296;SDS011;6211;49.124;9.152;2023-09-18T00:42:22;2.67;;;2.22;;
12296;SDS011;6211;49.124;9.152;2023-09-18T00:44:49;2.90;;;2.50;;
12296;SDS011;6211;49.124;9.152;2023-09-18T00:47:17;3.42;;;2.50;;
12296;SDS011;6211;49.124;9.152;2023-09-18T00:49:46;2.42;;;2.20;;
12296;SDS011;6211;49.124;9.152;2023-09-18T00:52:15;3.83;;;1.88;;
12296;SDS011;6211;49.124;9.152;2023-09-18T00:54:42;2.33;;;2.13;;
12296;SDS011;6211;49.124;9.152;2023-09-18T00:57:10;2.45;;;2.08;;
12296;SDS011;6211;49.124;9.152;2023-09-18T00:59:37;2.35;;;2.15;;
12296;SDS011;6211;49.124;9.152;2023-09-18T01:02:05;2.03;;;1.90;;
12296;SDS011;6211;49.124;9.152;2023-09-18T01:04:33;3.10;;;2.50;;
12296;SDS011;6211;49.124;9.152;2023-09-18T01:07:01;2.35;;;2.15;;
12296;SDS011;6211;49.124;9.152;2023-09-18T01:09:28;2.22;;;2.03;;
12296;SDS011;6211;49.124;9.152;2023-09-18T01:11:59;2.88;;;2.15;;
12296;SDS011;6211;49.124;9.152;2023-09-18T01:14:29;3.03;;;2.33;;
12296;SDS011;6211;49.124;9.152;2023-09-18T01:16:58;4.05;;;2.28;;
12296;SDS011;6211;49.124;9.152;2023-09-18T01:19:35;2.10;;;1.90;;
12296;SDS011;6211;49.124;9.152;2023-09-18T01:22:03;4.95;;;2.50;;
12296;SDS011;6211;49.124;9.152;2023-09-18T01:24:32;4.20;;;2.63;;
12296;SDS011;6211;49.124;9.152;2023-09-18T01:26:59;3.58;;;2.47;;
12296;SDS011;6211;49.124;9.152;2023-09-18T01:29:26;2.50;;;2.00;;
12296;SDS011;6211;49.124;9.152;2023-09-18T01:31:53;2.97;;;2.40;;
12296;SDS011;6211;49.124;9.152;2023-09-18T01:34:21;3.13;;;2.40;;
12296;SDS011;6211;49.124;9.152;2023-09-18T01:36:49;3.92;;;2.13;;
12296;SDS011;6211;49.124;9.152;2023-09-18T01:39:16;3.53;;;1.92;;
12296;SDS011;6211;49.124;9.152;2023-09-18T01:41:44;2.22;;;2.03;;
12296;SDS011;6211;49.124;9.152;2023-09-18T01:44:12;3.30;;;2.35;;
12296;SDS011;6211;49.124;9.152;2023-09-18T01:46:39;2.92;;;2.50;;
12296;SDS011;6211;49.124;9.152;2023-09-18T01:49:06;2.30;;;2.08;;
12296;SDS011;6211;49.124;9.152;2023-09-18T01:51:33;2.03;;;1.83;;
12296;SDS011;6211;49.124;9.152;2023-09-18T01:54:00;2.33;;;2.13;;
12296;SDS011;6211;49.124;9.152;2023-09-18T01:56:28;2.67;;;2.47;;
12296;SDS011;6211;49.124;9.152;2023-09-18T01:58:57;3.83;;;2.10;;
12296;SDS011;6211;49.124;9.152;2023-09-18T02:01:24;3.85;;;2.22;;
12296;SDS011;6211;49.124;9.152;2023-09-18T02:03:51;4.25;;;2.47;;
12296;SDS011;6211;49.124;9.152;2023-09-18T02:06:18;2.50;;;2.30;;
12296;SDS011;6211;49.124;9.152;2023-09-18T02:08:45;2.70;;;2.50;;
12296;SDS011;6211;49.124;9.152;2023-09-18T02:11:12;4.40;;;2.60;;
12296;SDS011;6211;49.124;9.152;2023-09-18T02:13:39;2.47;;;2.28;;
12296;SDS011;6211;49.124;9.152;2023-09-18T02:16:08;2.83;;;2.53;;
12296;SDS011;6211;49.124;9.152;2023-09-18T02:18:35;2.83;;;2.50;;
12296;SDS011;6211;49.124;9.152;2023-09-18T02:21:02;2.85;;;2.55;;
12296;SDS011;6211;49.124;9.152;2023-09-18T02:23:29;5.60;;;2.63;;
12296;SDS011;6211;49.124;9.152;2023-09-18T02:25:57;3.00;;;2.45;;
12296;SDS011;6211;49.124;9.152;2023-09-18T02:28:24;2.20;;;2.00;;
12296;SDS011;6211;49.124;9.152;2023-09-18T02:30:51;2.70;;;1.83;;
12296;SDS011;6211;49.124;9.152;2023-09-18T02:33:20;4.13;;;2.10;;
12296;SDS011;6211;49.124;9.152;2023-09-18T02:35:47;2.47;;;2.28;;
12296;SDS011;6211;49.124;9.152;2023-09-18T02:38:14;2.67;;;2.15;;
12296;SDS011;6211;49.124;9.152;2023-09-18T02:40:41;2.72;;;2.53;;
12296;SDS011;6211;49.124;9.152;2023-09-18T02:43:08;5.20;;;2.30;;
12296;SDS011;6211;49.124;9.152;2023-09-18T02:45:35;2.50;;;2.30;;
12296;SDS011;6211;49.124;9.152;2023-09-18T02:48:03;2.50;;;2.17;;
12296;SDS011;6211;49.124;9.152;2023-09-18T02:50:31;3.22;;;2.38;;
12296;SDS011;6211;49.124;9.152;2023-09-18T02:52:58;3.67;;;2.45;;
12296;SDS011;6211;49.124;9.152;2023-09-18T02:55:25;5.20;;;2.40;;
12296;SDS011;6211;49.124;9.152;2023-09-18T02:57:52;3.67;;;2.28;;
12296;SDS011;6211;49.124;9.152;2023-09-18T03:00:20;2.88;;;2.20;;
12296;SDS011;6211;49.124;9.152;2023-09-18T03:02:47;2.63;;;2.15;;
12296;SDS011;6211;49.124;9.152;2023-09-18T03:05:14;2.78;;;1.80;;
12296;SDS011;6211;49.124;9.152;2023-09-18T03:07:43;3.30;;;2.50;;
12296;SDS011;6211;49.124;9.152;2023-09-18T03:10:10;2.30;;;1.95;;
12296;SDS011;6211;49.124;9.152;2023-09-18T03:12:40;3.35;;;1.92;;
12296;SDS011;6211;49.124;9.152;2023-09-18T03:15:08;2.53;;;2.33;;
12296;SDS011;6211;49.124;9.152;2023-09-18T03:17:36;2.95;;;2.10;;
12296;SDS011;6211;49.124;9.152;2023-09-18T03:20:06;2.90;;;2.00;;
12296;SDS011;6211;49.124;9.152;2023-09-18T03:22:33;3.88;;;2.60;;
12296;SDS011;6211;49.124;9.152;2023-09-18T03:25:02;2.45;;;2.25;;
12296;SDS011;6211;49.124;9.152;2023-09-18T03:27:29;2.35;;;2.15;;
12296;SDS011;6211;49.124;9.152;2023-09-18T03:29:56;2.50;;;2.25;;
12296;SDS011;6211;49.124;9.152;2023-09-18T03:32:24;2.20;;;2.00;;
12296;SDS011;6211;49.124;9.152;2023-09-18T03:34:51;3.08;;;2.22;;
12296;SDS011;6211;49.124;9.152;2023-09-18T03:37:18;2.40;;;2.20;;
12296;SDS011;6211;49.124;9.152;2023-09-18T03:39:45;2.75;;;2.55;;
12296;SDS011;6211;49.124;9.152;2023-09-18T03:42:14;4.00;;;2.75;;
12296;SDS011;6211;49.124;9.152;2023-09-18T03:44:41;3.35;;;2.78;;
12296;SDS011;6211;49.124;9.152;2023-09-18T03:47:08;4.57;;;2.88;;
12296;SDS011;6211;49.124;9.152;2023-09-18T03:49:35;2.90;;;2.60;;
12296;SDS011;6211;49.124;9.152;2023-09-18T03:52:02;4.28;;;2.92;;
12296;SDS011;6211;49.124;9.152;2023-09-18T03:54:29;3.00;;;2.70;;
12296;SDS011;6211;49.124;9.152;2023-09-18T03:56:56;2.40;;;2.20;;
12296;SDS011;6211;49.124;9.152;2023-09-18T03:59:25;3.67;;;2.80;;
12296;SDS011;6211;49.124;9.152;2023-09-18T04:01:52;3.15;;;2.72;;
12296;SDS011;6211;49.124;9.152;2023-09-18T04:04:19;3.05;;;2.30;;
12296;SDS011;6211;49.124;9.152;2023-09-18T04:06:46;5.07;;;2.40;;
12296;SDS011;6211;49.124;9.152;2023-09-18T04:09:14;3.45;;;2.28;;
12296;SDS011;6211;49.124;9.152;2023-09-18T04:11:43;2.38;;;2.10;;
12296;SDS011;6211;49.124;9.152;2023-09-18T04:14:10;2.35;;;1.98;;
12296;SDS011;6211;49.124;9.152;2023-09-18T04:16:38;3.65;;;2.10;;
12296;SDS011;6211;49.124;9.152;2023-09-18T04:19:08;4.68;;;2.00;;
12296;SDS011;6211;49.124;9.152;2023-09-18T04:21:35;2.33;;;1.77;;
12296;SDS011;6211;49.124;9.152;2023-09-18T04:24:03;6.70;;;2.00;;
12296;SDS011;6211;49.124;9.152;2023-09-18T04:26:30;2.92;;;1.90;;
12296;SDS011;6211;49.124;9.152;2023-09-18T04:28:58;5.85;;;1.85;;
12296;SDS011;6211;49.124;9.152;2023-09-18T04:31:25;1.85;;;1.65;;
12296;SDS011;6211;49.124;9.152;2023-09-18T04:33:55;6.30;;;2.00;;
12296;SDS011;6211;49.124;9.152;2023-09-18T04:36:22;2.38;;;1.65;;
12296;SDS011;6211;49.124;9.152;2023-09-18T04:38:49;3.53;;;1.77;;
12296;SDS011;6211;49.124;9.152;2023-09-18T04:41:16;3.17;;;1.60;;
12296;SDS011;6211;49.124;9.152;2023-09-18T04:43:44;6.95;;;1.67;;
12296;SDS011;6211;49.124;9.152;2023-09-18T04:46:11;2.67;;;1.77;;
12296;SDS011;6211;49.124;9.152;2023-09-18T04:48:38;4.22;;;1.30;;
12296;SDS011;6211;49.124;9.152;2023-09-18T04:51:06;2.03;;;1.52;;
12296;SDS011;6211;49.124;9.152;2023-09-18T04:53:33;4.32;;;1.52;;
12296;SDS011;6211;49.124;9.152;2023-09-18T04:56:01;2.45;;;1.70;;
12296;SDS011;6211;49.124;9.152;2023-09-18T04:58:28;1.85;;;1.60;;
12296;SDS011;6211;49.124;9.152;2023-09-18T05:00:55;3.05;;;1.60;;
12296;SDS011;6211;49.124;9.152;2023-09-18T05:03:23;2.83;;;1.65;;
12296;SDS011;6211;49.124;9.152;2023-09-18T05:05:52;6.88;;;2.38;;
12296;SDS011;6211;49.124;9.152;2023-09-18T05:08:20;4.78;;;1.95;;
12296;SDS011;6211;49.124;9.152;2023-09-18T05:10:47;6.35;;;2.45;;
12296;SDS011;6211;49.124;9.152;2023-09-18T05:13:15;5.05;;;1.95;;
12296;SDS011;6211;49.124;9.152;2023-09-18T05:15:42;4.38;;;1.48;;
12296;SDS011;6211;49.124;9.152;2023-09-18T05:18:10;5.32;;;2.30;;
12296;SDS011;6211;49.124;9.152;2023-09-18T05:20:37;7.65;;;2.10;;
12296;SDS011;6211;49.124;9.152;2023-09-18T05:23:05;3.33;;;1.92;;
12296;SDS011;6211;49.124;9.152;2023-09-18T05:25:33;3.17;;;1.73;;
12296;SDS011;6211;49.124;9.152;2023-09-18T05:28:03;4.78;;;1.52;;
12296;SDS011;6211;49.124;9.152;2023-09-18T05:30:31;5.63;;;1.85;;
12296;SDS011;6211;49.124;9.152;2023-09-18T05:32:59;3.17;;;1.50;;
12296;SDS011;6211;49.124;9.152;2023-09-18T05:35:30;4.53;;;1.65;;
12296;SDS011;6211;49.124;9.152;2023-09-18T05:37:57;6.68;;;1.83;;
12296;SDS011;6211;49.124;9.152;2023-09-18T05:40:25;3.85;;;1.63;;
12296;SDS011;6211;49.124;9.152;2023-09-18T05:42:54;6.10;;;1.83;;
12296;SDS011;6211;49.124;9.152;2023-09-18T05:45:22;3.03;;;1.80;;
12296;SDS011;6211;49.124;9.152;2023-09-18T05:47:49;2.95;;;1.25;;
12296;SDS011;6211;49.124;9.152;2023-09-18T05:50:18;5.32;;;1.83;;
12296;SDS011;6211;49.124;9.152;2023-09-18T05:52:46;3.80;;;1.40;;
12296;SDS011;6211;49.124;9.152;2023-09-18T05:55:14;7.35;;;2.10;;
12296;SDS011;6211;49.124;9.152;2023-09-18T05:57:41;3.58;;;1.95;;
12296;SDS011;6211;49.124;9.152;2023-09-18T06:00:10;4.57;;;1.70;;
12296;SDS011;6211;49.124;9.152;2023-09-18T06:02:39;2.13;;;1.63;;
12296;SDS011;6211;49.124;9.152;2023-09-18T06:05:06;2.97;;;1.45;;
12296;SDS011;6211;49.124;9.152;2023-09-18T06:07:36;4.45;;;1.60;;
12296;SDS011;6211;49.124;9.152;2023-09-18T06:10:03;4.78;;;2.22;;
12296;SDS011;6211;49.124;9.152;2023-09-18T06:12:30;3.80;;;2.10;;
12296;SDS011;6211;49.124;9.152;2023-09-18T06:14:57;2.83;;;1.67;;
12296;SDS011;6211;49.124;9.152;2023-09-18T06:17:26;4.40;;;1.65;;
12296;SDS011;6211;49.124;9.152;2023-09-18T06:19:53;4.60;;;1.77;;
12296;SDS011;6211;49.124;9.152;2023-09-18T06:22:20;3.72;;;1.83;;
12296;SDS011;6211;49.124;9.152;2023-09-18T06:24:47;6.13;;;2.15;;
12296;SDS011;6211;49.124;9.152;2023-09-18T06:27:14;3.28;;;1.60;;
12296;SDS011;6211;49.124;9.152;2023-09-18T06:29:43;3.05;;;1.73;;
12296;SDS011;6211;49.124;9.152;2023-09-18T06:32:10;2.00;;;1.52;;
12296;SDS011;6211;49.124;9.152;2023-09-18T06:34:38;4.13;;;1.92;;
12296;SDS011;6211;49.124;9.152;2023-09-18T06:37:08;4.03;;;1.90;;
12296;SDS011;6211;49.124;9.152;2023-09-18T06:39:37;2.38;;;1.65;;
12296;SDS011;6211;49.124;9.152;2023-09-18T06:42:04;5.05;;;2.17;;
12296;SDS011;6211;49.124;9.152;2023-09-18T06:44:31;3.00;;;2.22;;
12296;SDS011;6211;49.124;9.152;2023-09-18T06:46:59;3.67;;;2.00;;
12296;SDS011;6211;49.124;9.152;2023-09-18T06:49:26;2.83;;;2.13;;
12296;SDS011;6211;49.124;9.152;2023-09-18T06:51:54;3.00;;;1.98;;
12296;SDS011;6211;49.124;9.152;2023-09-18T06:54:21;2.88;;;2.13;;
12296;SDS011;6211;49.124;9.152;2023-09-18T06:56:49;3.58;;;2.10;;
12296;SDS011;6211;49.124;9.152;2023-09-18T06:59:16;4.05;;;2.00;;
12296;SDS011;6211;49.124;9.152;2023-09-18T07:01:43;2.75;;;2.25;;
12296;SDS011;6211;49.124;9.152;2023-09-18T07:04:10;4.55;;;2.30;;
12296;SDS011;6211;49.124;9.152;2023-09-18T07:06:37;3.38;;;2.25;;
12296;SDS011;6211;49.124;9.152;2023-09-18T07:09:05;4.78;;;2.50;;
12296;SDS011;6211;49.124;9.152;2023-09-18T07:11:37;3.53;;;1.92;;
12296;SDS011;6211;49.124;9.152;2023-09-18T07:14:04;5.88;;;2.25;;
12296;SDS011;6211;49.124;9.152;2023-09-18T07:16:32;4.40;;;2.10;;
12296;SDS011;6211;49.124;9.152;2023-09-18T07:19:00;4.10;;;1.92;;
12296;SDS011;6211;49.124;9.152;2023-09-18T07:21:29;4.00;;;2.40;;
12296;SDS011;6211;49.124;9.152;2023-09-18T07:23:56;3.15;;;2.30;;
12296;SDS011;6211;49.124;9.152;2023-09-18T07:26:25;3.25;;;1.98;;
12296;SDS011;6211;49.124;9.152;2023-09-18T07:28:52;4.88;;;2.10;;
12296;SDS011;6211;49.124;9.152;2023-09-18T07:31:19;4.10;;;2.50;;
12296;SDS011;6211;49.124;9.152;2023-09-18T07:33:46;5.97;;;2.30;;
12296;SDS011;6211;49.124;9.152;2023-09-18T07:36:13;4.50;;;2.10;;
12296;SDS011;6211;49.124;9.152;2023-09-18T07:38:41;2.45;;;2.22;;
12296;SDS011;6211;49.124;9.152;2023-09-18T07:41:08;4.13;;;2.05;;
12296;SDS011;6211;49.124;9.152;2023-09-18T07:43:37;4.75;;;2.10;;
12296;SDS011;6211;49.124;9.152;2023-09-18T07:46:05;4.78;;;2.00;;
12296;SDS011;6211;49.124;9.152;2023-09-18T07:48:32;2.60;;;1.88;;
12296;SDS011;6211;49.124;9.152;2023-09-18T07:50:59;3.40;;;1.80;;
12296;SDS011;6211;49.124;9.152;2023-09-18T07:53:27;3.42;;;2.05;;
12296;SDS011;6211;49.124;9.152;2023-09-18T07:55:57;4.18;;;1.98;;
12296;SDS011;6211;49.124;9.152;2023-09-18T07:58:24;4.82;;;2.15;;
12296;SDS011;6211;49.124;9.152;2023-09-18T08:00:54;3.95;;;1.95;;
12296;SDS011;6211;49.124;9.152;2023-09-18T08:03:22;4.63;;;1.88;;
12296;SDS011;6211;49.124;9.152;2023-09-18T08:05:49;2.42;;;1.90;;
12296;SDS011;6211;49.124;9.152;2023-09-18T08:08:18;5.47;;;2.88;;
12296;SDS011;6211;49.124;9.152;2023-09-18T08:10:46;4.78;;;2.08;;
12296;SDS011;6211;49.124;9.152;2023-09-18T08:13:13;4.97;;;1.80;;
12296;SDS011;6211;49.124;9.152;2023-09-18T08:15:40;3.40;;;1.33;;
12296;SDS011;6211;49.124;9.152;2023-09-18T08:18:09;3.20;;;1.77;;
12296;SDS011;6211;49.124;9.152;2023-09-18T08:20:39;2.25;;;1.52;;
12296;SDS011;6211;49.124;9.152;2023-09-18T08:23:07;2.72;;;1.38;;
12296;SDS011;6211;49.124;9.152;2023-09-18T08:25:34;1.92;;;1.20;;
12296;SDS011;6211;49.124;9.152;2023-09-18T08:28:02;5.85;;;1.50;;
12296;SDS011;6211;49.124;9.152;2023-09-18T08:30:29;2.78;;;1.27;;
12296;SDS011;6211;49.124;9.152;2023-09-18T08:32:57;4.40;;;1.50;;
12296;SDS011;6211;49.124;9.152;2023-09-18T08:35:25;3.78;;;1.50;;
12296;SDS011;6211;49.124;9.152;2023-09-18T08:37:54;1.73;;;1.33;;
12296;SDS011;6211;49.124;9.152;2023-09-18T08:40:22;4.78;;;1.20;;
12296;SDS011;6211;49.124;9.152;2023-09-18T08:42:51;2.55;;;1.40;;
12296;SDS011;6211;49.124;9.152;2023-09-18T08:45:22;6.57;;;1.50;;
12296;SDS011;6211;49.124;9.152;2023-09-18T08:47:50;2.33;;;1.30;;
12296;SDS011;6211;49.124;9.152;2023-09-18T08:50:18;2.45;;;1.33;;
12296;SDS011;6211;49.124;9.152;2023-09-18T08:52:49;2.75;;;1.02;;
12296;SDS011;6211;49.124;9.152;2023-09-18T08:55:16;3.15;;;1.10;;
12296;SDS011;6211;49.124;9.152;2023-09-18T08:57:44;2.53;;;1.33;;
12296;SDS011;6211;49.124;9.152;2023-09-18T09:00:13;5.38;;;1.73;;
12296;SDS011;6211;49.124;9.152;2023-09-18T09:02:43;3.10;;;0.98;;
12296;SDS011;6211;49.124;9.152;2023-09-18T09:05:13;2.22;;;1.00;;
12296;SDS011;6211;49.124;9.152;2023-09-18T09:07:41;1.58;;;1.05;;
12296;SDS011;6211;49.124;9.152;2023-09-18T09:10:12;1.55;;;0.95;;
12296;SDS011;6211;49.124;9.152;2023-09-18T09:12:46;2.17;;;0.85;;
12296;SDS011;6211;49.124;9.152;2023-09-18T09:15:13;1.05;;;0.95;;
12296;SDS011;6211;49.124;9.152;2023-09-18T09:17:43;1.00;;;0.90;;
12296;SDS011;6211;49.124;9.152;2023-09-18T09:20:11;3.55;;;1.30;;
12296;SDS011;6211;49.124;9.152;2023-09-18T09:22:39;2.03;;;1.35;;
12296;SDS011;6211;49.124;9.152;2023-09-18T09:25:24;2.30;;;0.98;;
12296;SDS011;6211;49.124;9.152;2023-09-18T09:27:52;3.15;;;1.20;;
12296;SDS011;6211;49.124;9.152;2023-09-18T09:30:22;3.70;;;1.30;;
12296;SDS011;6211;49.124;9.152;2023-09-18T09:32:50;2.42;;;0.90;;
12296;SDS011;6211;49.124;9.152;2023-09-18T09:35:21;3.22;;;1.13;;
12296;SDS011;6211;49.124;9.152;2023-09-18T09:37:49;0.80;;;0.80;;
12296;SDS011;6211;49.124;9.152;2023-09-18T09:40:18;1.63;;;0.93;;
12296;SDS011;6211;49.124;9.152;2023-09-18T09:42:47;1.42;;;1.13;;
12296;SDS011;6211;49.124;9.152;2023-09-18T09:45:16;1.83;;;1.10;;
12296;SDS011;6211;49.124;9.152;2023-09-18T09:47:43;4.18;;;1.52;;
12296;SDS011;6211;49.124;9.152;2023-09-18T09:50:12;1.80;;;1.42;;
12296;SDS011;6211;49.124;9.152;2023-09-18T09:52:41;2.42;;;1.15;;
12296;SDS011;6211;49.124;9.152;2023-09-18T09:55:21;2.20;;;1.33;;
12296;SDS011;6211;49.124;9.152;2023-09-18T09:57:51;1.05;;;0.80;;
12296;SDS011;6211;49.124;9.152;2023-09-18T10:00:19;2.97;;;1.27;;
12296;SDS011;6211;49.124;9.152;2023-09-18T10:02:56;4.65;;;1.40;;
12296;SDS011;6211;49.124;9.152;2023-09-18T10:05:24;1.25;;;0.95;;
12296;SDS011;6211;49.124;9.152;2023-09-18T10:07:54;0.70;;;0.70;;
12296;SDS011;6211;49.124;9.152;2023-09-18T10:10:23;3.35;;;1.13;;
12296;SDS011;6211;49.124;9.152;2023-09-18T10:12:52;0.80;;;0.80;;
12296;SDS011;6211;49.124;9.152;2023-09-18T10:15:23;3.42;;;1.00;;
12296;SDS011;6211;49.124;9.152;2023-09-18T10:17:50;0.80;;;0.80;;
12296;SDS011;6211;49.124;9.152;2023-09-18T10:20:21;2.47;;;1.25;;
12296;SDS011;6211;49.124;9.152;2023-09-18T10:22:52;1.35;;;0.80;;
12296;SDS011;6211;49.124;9.152;2023-09-18T10:25:21;1.70;;;0.80;;
12296;SDS011;6211;49.124;9.152;2023-09-18T10:27:52;1.08;;;0.85;;
12296;SDS011;6211;49.124;9.152;2023-09-18T10:30:23;2.90;;;0.98;;
12296;SDS011;6211;49.124;9.152;2023-09-18T10:32:51;5.28;;;0.90;;
12296;SDS011;6211;49.124;9.152;2023-09-18T10:35:21;0.85;;;0.80;;
12296;SDS011;6211;49.124;9.152;2023-09-18T10:37:49;1.00;;;0.70;;
12296;SDS011;6211;49.124;9.152;2023-09-18T10:40:19;2.35;;;1.02;;
12296;SDS011;6211;49.124;9.152;2023-09-18T10:42:52;2.25;;;0.93;;
12296;SDS011;6211;49.124;9.152;2023-09-18T10:45:21;1.08;;;0.70;;
12296;SDS011;6211;49.124;9.152;2023-09-18T10:47:48;1.48;;;0.70;;
12296;SDS011;6211;49.124;9.152;2023-09-18T10:50:22;2.45;;;0.82;;
12296;SDS011;6211;49.124;9.152;2023-09-18T10:52:50;1.42;;;1.30;;
12296;SDS011;6211;49.124;9.152;2023-09-18T10:55:17;4.60;;;1.35;;
12296;SDS011;6211;49.124;9.152;2023-09-18T10:57:50;3.08;;;1.10;;
12296;SDS011;6211;49.124;9.152;2023-09-18T11:00:20;1.27;;;0.90;;
12296;SDS011;6211;49.124;9.152;2023-09-18T11:02:50;0.73;;;0.70;;
12296;SDS011;6211;49.124;9.152;2023-09-18T11:05:26;1.33;;;0.68;;
12296;SDS011;6211;49.124;9.152;2023-09-18T11:10:54;0.80;;;0.75;;
12296;SDS011;6211;49.124;9.152;2023-09-18T11:13:27;2.05;;;0.93;;
12296;SDS011;6211;49.124;9.152;2023-09-18T11:16:00;0.93;;;0.80;;
12296;SDS011;6211;49.124;9.152;2023-09-18T11:18:31;1.50;;;0.77;;
12296;SDS011;6211;49.124;9.152;2023-09-18T11:21:06;2.35;;;0.88;;
12296;SDS011;6211;49.124;9.152;2023-09-18T11:23:34;1.27;;;0.95;;
12296;SDS011;6211;49.124;9.152;2023-09-18T11:26:03;0.95;;;0.95;;
12296;SDS011;6211;49.124;9.152;2023-09-18T11:28:31;2.40;;;0.98;;
12296;SDS011;6211;49.124;9.152;2023-09-18T11:31:03;1.23;;;0.65;;
12296;SDS011;6211;49.124;9.152;2023-09-18T11:33:31;0.80;;;0.80;;
12296;SDS011;6211;49.124;9.152;2023-09-18T11:36:02;0.70;;;0.70;;
12296;SDS011;6211;49.124;9.152;2023-09-18T11:38:30;4.10;;;1.05;;
12296;SDS011;6211;49.124;9.152;2023-09-18T11:40:58;1.55;;;0.88;;
12296;SDS011;6211;49.124;9.152;2023-09-18T11:43:26;1.98;;;0.88;;
12296;SDS011;6211;49.124;9.152;2023-09-18T11:45:56;0.77;;;0.63;;
12296;SDS011;6211;49.124;9.152;2023-09-18T11:48:25;2.47;;;0.90;;
12296;SDS011;6211;49.124;9.152;2023-09-18T11:50:55;1.25;;;1.00;;
12296;SDS011;6211;49.124;9.152;2023-09-18T11:53:26;1.52;;;1.00;;
12296;SDS011;6211;49.124;9.152;2023-09-18T11:55:53;2.55;;;0.77;;
12296;SDS011;6211;49.124;9.152;2023-09-18T11:58:24;2.95;;;0.90;;
12296;SDS011;6211;49.124;9.152;2023-09-18T12:00:51;3.35;;;0.80;;
12296;SDS011;6211;49.124;9.152;2023-09-18T12:03:24;0.70;;;0.70;;
12296;SDS011;6211;49.124;9.152;2023-09-18T12:05:52;3.22;;;0.90;;
12296;SDS011;6211;49.124;9.152;2023-09-18T12:08:21;1.10;;;0.90;;
12296;SDS011;6211;49.124;9.152;2023-09-18T12:10:49;1.17;;;0.75;;
12296;SDS011;6211;49.124;9.152;2023-09-18T12:13:16;1.15;;;1.00;;
12296;SDS011;6211;49.124;9.152;2023-09-18T12:15:43;1.20;;;1.00;;
12296;SDS011;6211;49.124;9.152;2023-09-18T12:18:10;1.08;;;0.90;;
12296;SDS011;6211;49.124;9.152;2023-09-18T12:20:45;1.70;;;0.90;;
12296;SDS011;6211;49.124;9.152;2023-09-18T12:23:12;2.47;;;0.68;;
12296;SDS011;6211;49.124;9.152;2023-09-18T12:25:40;3.05;;;1.00;;
12296;SDS011;6211;49.124;9.152;2023-09-18T12:28:07;1.65;;;0.75;;
12296;SDS011;6211;49.124;9.152;2023-09-18T12:30:36;1.55;;;0.85;;
12296;SDS011;6211;49.124;9.152;2023-09-18T12:33:04;3.25;;;0.93;;
12296;SDS011;6211;49.124;9.152;2023-09-18T12:35:32;0.77;;;0.77;;
12296;SDS011;6211;49.124;9.152;2023-09-18T12:38:00;0.60;;;0.55;;
12296;SDS011;6211;49.124;9.152;2023-09-18T12:40:30;0.70;;;0.70;;
12296;SDS011;6211;49.124;9.152;2023-09-18T12:42:58;2.22;;;0.80;;
12296;SDS011;6211;49.124;9.152;2023-09-18T12:45:26;1.88;;;0.85;;
12296;SDS011;6211;49.124;9.152;2023-09-18T12:47:54;2.30;;;0.90;;
12296;SDS011;6211;49.124;9.152;2023-09-18T12:50:22;3.88;;;0.98;;
12296;SDS011;6211;49.124;9.152;2023-09-18T12:52:52;2.13;;;1.00;;
12296;SDS011;6211;49.124;9.152;2023-09-18T12:55:24;1.35;;;1.05;;
12296;SDS011;6211;49.124;9.152;2023-09-18T12:57:52;1.15;;;0.88;;
12296;SDS011;6211;49.124;9.152;2023-09-18T13:00:19;1.73;;;0.88;;
12296;SDS011;6211;49.124;9.152;2023-09-18T13:02:47;3.63;;;0.90;;
12296;SDS011;6211;49.124;9.152;2023-09-18T13:05:19;1.83;;;0.57;;
12296;SDS011;6211;49.124;9.152;2023-09-18T13:07:46;1.40;;;0.85;;
12296;SDS011;6211;49.124;9.152;2023-09-18T13:10:15;1.98;;;0.70;;
12296;SDS011;6211;49.124;9.152;2023-09-18T13:12:45;0.70;;;0.70;;
12296;SDS011;6211;49.124;9.152;2023-09-18T13:15:13;1.60;;;0.55;;
12296;SDS011;6211;49.124;9.152;2023-09-18T13:17:40;0.38;;;0.38;;
12296;SDS011;6211;49.124;9.152;2023-09-18T13:20:10;1.80;;;0.80;;
12296;SDS011;6211;49.124;9.152;2023-09-18T13:22:38;0.80;;;0.80;;
12296;SDS011;6211;49.124;9.152;2023-09-18T13:25:06;1.05;;;0.70;;
12296;SDS011;6211;49.124;9.152;2023-09-18T13:27:33;0.70;;;0.70;;
12296;SDS011;6211;49.124;9.152;2023-09-18T13:30:02;1.20;;;0.77;;
12296;SDS011;6211;49.124;9.152;2023-09-18T13:32:32;0.77;;;0.65;;
12296;SDS011;6211;49.124;9.152;2023-09-18T13:34:59;3.45;;;1.00;;
12296;SDS011;6211;49.124;9.152;2023-09-18T13:37:26;1.33;;;0.77;;
12296;SDS011;6211;49.124;9.152;2023-09-18T13:39:54;1.00;;;0.70;;
12296;SDS011;6211;49.124;9.152;2023-09-18T13:42:21;0.73;;;0.70;;
12296;SDS011;6211;49.124;9.152;2023-09-18T13:44:49;0.80;;;0.70;;
12296;SDS011;6211;49.124;9.152;2023-09-18T13:47:18;1.48;;;0.90;;
12296;SDS011;6211;49.124;9.152;2023-09-18T13:49:45;1.08;;;0.80;;
12296;SDS011;6211;49.124;9.152;2023-09-18T13:52:12;0.82;;;0.70;;
12296;SDS011;6211;49.124;9.152;2023-09-18T13:54:41;1.83;;;0.60;;
12296;SDS011;6211;49.124;9.152;2023-09-18T13:57:08;1.95;;;0.80;;
12296;SDS011;6211;49.124;9.152;2023-09-18T13:59:35;1.92;;;0.80;;
12296;SDS011;6211;49.124;9.152;2023-09-18T14:02:03;0.90;;;0.50;;
12296;SDS011;6211;49.124;9.152;2023-09-18T14:04:31;3.75;;;0.80;;
12296;SDS011;6211;49.124;9.152;2023-09-18T14:06:58;1.17;;;0.70;;
12296;SDS011;6211;49.124;9.152;2023-09-18T14:09:26;3.92;;;0.90;;
12296;SDS011;6211;49.124;9.152;2023-09-18T14:11:53;2.60;;;0.70;;
12296;SDS011;6211;49.124;9.152;2023-09-18T14:14:21;0.90;;;0.70;;
12296;SDS011;6211;49.124;9.152;2023-09-18T14:16:49;0.73;;;0.73;;
12296;SDS011;6211;49.124;9.152;2023-09-18T14:19:16;0.68;;;0.60;;
12296;SDS011;6211;49.124;9.152;2023-09-18T14:21:46;1.38;;;0.50;;
12296;SDS011;6211;49.124;9.152;2023-09-18T14:24:14;1.10;;;0.75;;
12296;SDS011;6211;49.124;9.152;2023-09-18T14:26:43;0.73;;;0.70;;
12296;SDS011;6211;49.124;9.152;2023-09-18T14:29:10;0.68;;;0.68;;
12296;SDS011;6211;49.124;9.152;2023-09-18T14:31:38;1.08;;;0.80;;
12296;SDS011;6211;49.124;9.152;2023-09-18T14:34:09;0.80;;;0.70;;
12296;SDS011;6211;49.124;9.152;2023-09-18T14:36:36;1.15;;;0.88;;
12296;SDS011;6211;49.124;9.152;2023-09-18T14:39:05;1.10;;;0.90;;
12296;SDS011;6211;49.124;9.152;2023-09-18T14:41:33;1.70;;;0.70;;
12296;SDS011;6211;49.124;9.152;2023-09-18T14:44:00;1.00;;;0.90;;
12296;SDS011;6211;49.124;9.152;2023-09-18T14:46:28;1.40;;;0.70;;
12296;SDS011;6211;49.124;9.152;2023-09-18T14:48:58;0.70;;;0.70;;
12296;SDS011;6211;49.124;9.152;2023-09-18T14:51:25;1.08;;;0.80;;
12296;SDS011;6211;49.124;9.152;2023-09-18T14:53:53;0.68;;;0.65;;
12296;SDS011;6211;49.124;9.152;2023-09-18T14:56:21;1.35;;;0.80;;
12296;SDS011;6211;49.124;9.152;2023-09-18T14:58:48;1.23;;;0.65;;
12296;SDS011;6211;49.124;9.152;2023-09-18T15:01:18;0.57;;;0.57;;
12296;SDS011;6211;49.124;9.152;2023-09-18T15:03:46;0.80;;;0.60;;
12296;SDS011;6211;49.124;9.152;2023-09-18T15:06:13;0.60;;;0.60;;
12296;SDS011;6211;49.124;9.152;2023-09-18T15:08:41;0.68;;;0.68;;